createdAt,value
2023-03-13T00:01:14.471Z,19.43
2023-03-13T00:03:42.474Z,14.90
2023-03-13T00:06:10.724Z,16.50
2023-03-13T00:08:40.171Z,13.23
2023-03-13T00:11:09.765Z,11.50
2023-03-13T00:13:38.040Z,16.23
2023-03-13T00:16:07.745Z,19.97
2023-03-13T00:18:36.347Z,22.43
2023-03-13T00:21:06.279Z,17.47
2023-03-13T00:23:35.982Z,17.77
2023-03-13T00:26:06.929Z,15.47
2023-03-13T00:28:36.256Z,17.27
2023-03-13T00:31:05.415Z,21.07
2023-03-13T00:33:33.872Z,19.90
2023-03-13T00:36:02.629Z,19.83
2023-03-13T00:38:31.011Z,18.50
2023-03-13T00:41:06.548Z,11.93
2023-03-13T00:43:36.656Z,16.27
2023-03-13T00:46:04.646Z,18.00
2023-03-13T00:48:33.158Z,17.53
2023-03-13T00:51:01.848Z,20.43
2023-03-13T00:53:30.149Z,21.17
2023-03-13T00:56:00.188Z,17.27
2023-03-13T00:58:30.330Z,18.63
2023-03-13T01:01:08.209Z,18.20
2023-03-13T01:03:37.057Z,16.03
2023-03-13T01:06:07.106Z,18.63
2023-03-13T01:08:35.348Z,21.90
2023-03-13T01:11:04.846Z,22.67
2023-03-13T01:13:34.595Z,21.13
2023-03-13T01:16:09.676Z,18.67
2023-03-13T01:18:38.757Z,18.27
2023-03-13T01:21:07.621Z,17.17
2023-03-13T01:23:35.742Z,24.23
2023-03-13T01:26:08.228Z,18.00
2023-03-13T01:28:37.221Z,17.60
2023-03-13T01:31:13.924Z,19.13
2023-03-13T01:33:42.081Z,20.97
2023-03-13T01:36:10.561Z,25.77
2023-03-13T01:38:39.082Z,17.13
2023-03-13T01:41:08.673Z,19.17
2023-03-13T01:43:37.992Z,22.00
2023-03-13T01:46:18.705Z,13.10
2023-03-13T01:49:18.269Z,16.63
2023-03-13T01:52:05.283Z,20.33
2023-03-13T01:54:40.562Z,21.43
2023-03-13T01:57:14.879Z,16.27
2023-03-13T01:59:47.536Z,14.70
2023-03-13T02:02:17.359Z,21.37
2023-03-13T02:04:50.178Z,16.40
2023-03-13T02:07:23.741Z,16.50
2023-03-13T02:09:55.015Z,15.47
2023-03-13T02:12:28.229Z,14.60
2023-03-13T02:14:58.772Z,16.07
2023-03-13T02:17:28.655Z,21.70
2023-03-13T02:19:56.749Z,15.83
2023-03-13T02:22:32.650Z,17.83
2023-03-13T02:25:10.203Z,17.47
2023-03-13T02:27:40.522Z,16.37
2023-03-13T02:30:13.023Z,17.80
2023-03-13T02:32:42.309Z,21.53
2023-03-13T02:35:13.294Z,21.83
2023-03-13T02:37:43.848Z,19.27
2023-03-13T02:40:21.769Z,18.43
2023-03-13T02:42:53.479Z,12.93
2023-03-13T02:45:21.725Z,19.70
2023-03-13T02:47:50.432Z,20.73
2023-03-13T02:50:18.914Z,19.27
2023-03-13T02:52:50.656Z,10.57
2023-03-13T02:55:25.343Z,15.20
2023-03-13T02:57:54.694Z,13.13
2023-03-13T03:00:26.626Z,14.67
2023-03-13T03:02:56.489Z,14.37
2023-03-13T03:05:24.951Z,13.70
2023-03-13T03:07:53.059Z,11.90
2023-03-13T03:10:21.038Z,13.47
2023-03-13T03:12:48.955Z,7.90
2023-03-13T03:15:18.326Z,9.97
2023-03-13T03:17:48.628Z,14.17
2023-03-13T03:20:16.728Z,12.10
2023-03-13T03:22:45.052Z,8.33
2023-03-13T03:25:13.819Z,11.10
2023-03-13T03:27:41.655Z,11.60
2023-03-13T03:30:11.818Z,9.57
2023-03-13T03:32:42.125Z,9.07
2023-03-13T03:35:10.239Z,9.80
2023-03-13T03:37:38.136Z,8.30
2023-03-13T03:40:07.670Z,7.87
2023-03-13T03:42:36.426Z,6.53
2023-03-13T03:45:05.013Z,7.03
2023-03-13T03:47:32.891Z,8.13
2023-03-13T03:50:03.714Z,9.23
2023-03-13T03:52:36.694Z,5.97
2023-03-13T03:55:04.865Z,6.57
2023-03-13T03:57:33.771Z,5.73
2023-03-13T04:00:02.406Z,5.73
2023-03-13T04:02:40.859Z,4.90
2023-03-13T04:05:11.666Z,6.87
2023-03-13T04:07:41.031Z,3.70
2023-03-13T04:10:09.821Z,5.13
2023-03-13T04:12:43.548Z,2.37
2023-03-13T04:15:12.728Z,3.93
2023-03-13T04:17:41.652Z,2.87
2023-03-13T04:20:15.272Z,2.47
2023-03-13T04:22:43.566Z,4.03
2023-03-13T04:25:12.558Z,3.03
2023-03-13T04:27:40.756Z,3.20
2023-03-13T04:30:10.972Z,2.37
2023-03-13T04:32:38.773Z,2.23
2023-03-13T04:35:26.468Z,3.87
2023-03-13T04:38:15.668Z,5.30
2023-03-13T04:41:06.378Z,1.97
2023-03-13T04:44:06.760Z,4.63
2023-03-13T04:46:54.165Z,3.50
2023-03-13T04:49:44.989Z,2.77
2023-03-13T04:52:33.524Z,4.63
2023-03-13T04:55:22.424Z,4.60
2023-03-13T04:58:25.138Z,3.23
2023-03-13T05:01:16.096Z,7.03
2023-03-13T05:03:58.986Z,7.13
2023-03-13T05:06:50.042Z,5.53
2023-03-13T05:09:33.261Z,5.63
2023-03-13T05:12:30.674Z,6.47
2023-03-13T05:15:09.503Z,3.47
2023-03-13T05:17:54.832Z,6.73
2023-03-13T05:20:31.321Z,6.93
2023-03-13T05:23:07.495Z,9.37
2023-03-13T05:25:49.694Z,6.60
2023-03-13T05:28:36.320Z,3.03
2023-03-13T05:31:20.042Z,5.73
2023-03-13T05:34:11.457Z,3.27
2023-03-13T05:36:53.625Z,3.97
2023-03-13T05:39:39.882Z,3.17
2023-03-13T05:42:29.290Z,5.70
2023-03-13T05:45:05.388Z,5.03
2023-03-13T05:47:55.753Z,4.83
2023-03-13T05:50:55.905Z,3.13
2023-03-13T05:53:51.366Z,2.23
2023-03-13T05:56:37.474Z,2.50
2023-03-13T05:59:15.873Z,3.40
2023-03-13T06:02:20.699Z,4.33
2023-03-13T06:04:49.461Z,4.47
2023-03-13T06:07:17.417Z,4.40
2023-03-13T06:09:45.242Z,5.63
2023-03-13T06:12:13.489Z,4.13
2023-03-13T06:14:42.746Z,3.87
2023-03-13T06:17:10.484Z,4.10
2023-03-13T06:19:38.233Z,4.23
2023-03-13T06:22:06.146Z,4.50
2023-03-13T06:24:34.192Z,3.20
2023-03-13T06:27:01.995Z,4.13
2023-03-13T06:29:29.740Z,3.83
2023-03-13T06:31:59.209Z,3.60
2023-03-13T06:34:27.050Z,3.50
2023-03-13T06:36:54.849Z,3.17
2023-03-13T06:39:22.592Z,2.70
2023-03-13T06:41:50.398Z,4.90
2023-03-13T06:44:18.285Z,3.53
2023-03-13T06:46:46.244Z,3.40
2023-03-13T06:49:15.421Z,3.13
2023-03-13T06:51:43.299Z,5.30
2023-03-13T06:54:11.175Z,4.10
2023-03-13T06:56:38.982Z,4.03
2023-03-13T06:59:06.908Z,3.90
2023-03-13T07:01:34.787Z,4.20
2023-03-13T07:04:02.584Z,5.37
2023-03-13T07:06:31.704Z,5.57
2023-03-13T07:08:59.474Z,7.27
2023-03-13T07:11:27.272Z,8.30
2023-03-13T07:14:06.517Z,4.17
2023-03-13T07:16:42.905Z,4.27
2023-03-13T07:19:10.908Z,5.77
2023-03-13T07:21:40.176Z,4.50
2023-03-13T07:24:08.429Z,3.90
2023-03-13T07:26:36.594Z,7.17
2023-03-13T07:29:05.631Z,5.90
2023-03-13T07:31:34.151Z,2.90
2023-03-13T07:34:02.140Z,3.87
2023-03-13T07:36:30.865Z,4.10
2023-03-13T07:39:00.100Z,5.57
2023-03-13T07:41:28.229Z,4.27
2023-03-13T07:43:57.007Z,5.63
2023-03-13T07:46:24.900Z,4.73
2023-03-13T07:48:52.795Z,8.73
2023-03-13T07:51:33.522Z,3.50
2023-03-13T07:54:10.457Z,6.03
2023-03-13T07:56:38.385Z,3.30
2023-03-13T07:59:06.853Z,6.63
2023-03-13T08:01:35.424Z,6.93
2023-03-13T08:04:03.592Z,6.97
2023-03-13T08:06:35.531Z,3.80
2023-03-13T08:09:03.476Z,7.27
2023-03-13T08:11:32.738Z,7.30
2023-03-13T08:14:00.761Z,4.27
2023-03-13T08:16:30.948Z,7.83
2023-03-13T08:19:00.795Z,12.57
2023-03-13T08:21:30.404Z,6.97
2023-03-13T08:24:00.249Z,8.73
2023-03-13T08:26:30.375Z,5.90
2023-03-13T08:29:01.469Z,16.87
2023-03-13T08:31:31.049Z,8.27
2023-03-13T08:33:59.361Z,7.27
2023-03-13T08:36:29.094Z,7.43
2023-03-13T08:39:00.124Z,7.30
2023-03-13T08:41:30.576Z,7.20
2023-03-13T08:44:00.001Z,9.93
2023-03-13T08:46:30.492Z,7.73
2023-03-13T08:48:58.521Z,10.07
2023-03-13T08:51:28.531Z,11.67
2023-03-13T08:53:57.388Z,11.47
2023-03-13T08:56:27.949Z,10.30
2023-03-13T08:58:58.129Z,9.73
2023-03-13T09:01:28.878Z,18.37
2023-03-13T09:03:57.937Z,11.93
2023-03-13T09:06:25.994Z,13.23
2023-03-13T09:08:54.022Z,10.90
2023-03-13T09:11:22.890Z,4.97
2023-03-13T09:13:51.832Z,9.53
2023-03-13T09:16:22.097Z,6.57
2023-03-13T09:18:53.260Z,6.37
2023-03-13T09:21:23.735Z,8.77
2023-03-13T09:23:52.813Z,6.43
2023-03-13T09:26:23.352Z,5.83
2023-03-13T09:28:52.399Z,6.43
2023-03-13T09:31:24.938Z,6.23
2023-03-13T09:33:54.940Z,7.37
2023-03-13T09:36:24.527Z,8.63
2023-03-13T09:38:53.036Z,7.23
2023-03-13T09:41:27.672Z,5.37
2023-03-13T09:44:03.038Z,6.43
2023-03-13T09:46:39.020Z,6.40
2023-03-13T09:49:17.250Z,7.20
2023-03-13T09:51:50.858Z,7.90
2023-03-13T09:54:25.923Z,5.47
2023-03-13T09:56:57.583Z,7.27
2023-03-13T09:59:35.402Z,7.83
2023-03-13T10:02:17.635Z,8.50
2023-03-13T10:04:52.142Z,6.40
2023-03-13T10:07:21.292Z,5.87
2023-03-13T10:09:49.094Z,7.47
2023-03-13T10:12:20.865Z,6.97
2023-03-13T10:14:59.695Z,6.23
2023-03-13T10:17:33.971Z,5.33
2023-03-13T10:20:16.567Z,6.47
2023-03-13T10:22:49.010Z,6.13
2023-03-13T10:25:28.053Z,6.73
2023-03-13T10:27:56.188Z,7.93
2023-03-13T10:30:27.049Z,8.43
2023-03-13T10:32:58.707Z,7.17
2023-03-13T10:35:34.215Z,6.20
2023-03-13T10:38:06.768Z,6.33
2023-03-13T10:40:34.601Z,5.43
2023-03-13T10:43:05.660Z,5.60
2023-03-13T10:45:36.560Z,7.77
2023-03-13T10:48:05.851Z,7.73
2023-03-13T10:50:36.703Z,8.73
2023-03-13T10:53:26.920Z,9.10
2023-03-13T10:55:56.533Z,4.53
2023-03-13T10:58:31.331Z,4.40
2023-03-13T11:01:16.520Z,6.47
2023-03-13T11:03:45.755Z,3.97
2023-03-13T11:06:27.697Z,3.13
2023-03-13T11:09:13.008Z,6.67
2023-03-13T11:11:49.263Z,6.97
2023-03-13T11:14:19.304Z,7.13
2023-03-13T11:16:50.343Z,8.67
2023-03-13T11:19:37.733Z,3.67
2023-03-13T11:22:26.439Z,6.03
2023-03-13T11:25:03.531Z,3.97
2023-03-13T11:27:38.938Z,9.70
2023-03-13T11:30:22.815Z,3.20
2023-03-13T11:32:55.082Z,5.00
2023-03-13T11:35:41.122Z,4.93
2023-03-13T11:38:19.960Z,4.07
2023-03-13T11:40:55.325Z,5.80
2023-03-13T11:43:42.189Z,5.37
2023-03-13T11:46:23.557Z,5.97
2023-03-13T11:49:21.161Z,5.03
2023-03-13T11:51:59.847Z,1.87
2023-03-13T11:54:53.362Z,4.67
2023-03-13T11:57:29.704Z,2.97
2023-03-13T12:00:16.386Z,2.33
2023-03-13T12:02:51.486Z,1.93
2023-03-13T12:05:21.630Z,8.60
2023-03-13T12:07:55.592Z,5.67
2023-03-13T12:10:29.905Z,5.07
2023-03-13T12:13:03.661Z,4.30
2023-03-13T12:15:35.678Z,3.67
2023-03-13T12:18:10.916Z,2.40
2023-03-13T12:20:45.044Z,2.33
2023-03-13T12:23:19.291Z,3.23
2023-03-13T12:25:54.022Z,2.93
2023-03-13T12:28:33.155Z,1.63
2023-03-13T12:31:11.402Z,2.27
2023-03-13T12:33:44.361Z,4.63
2023-03-13T12:36:15.826Z,5.13
2023-03-13T12:38:50.931Z,4.47
2023-03-13T12:41:25.843Z,1.40
2023-03-13T12:44:07.679Z,4.67
2023-03-13T12:46:47.694Z,3.00
2023-03-13T12:49:51.121Z,2.83
2023-03-13T12:52:43.279Z,4.23
2023-03-13T12:55:33.385Z,2.37
2023-03-13T12:58:14.876Z,4.23
2023-03-13T13:00:45.846Z,2.43
2023-03-13T13:03:25.970Z,2.20
2023-03-13T13:06:03.171Z,4.30
2023-03-13T13:08:35.632Z,5.83
2023-03-13T13:11:40.810Z,3.13
2023-03-13T13:14:57.580Z,1.87
2023-03-13T13:17:40.212Z,4.07
2023-03-13T13:20:41.889Z,1.97
2023-03-13T13:23:34.017Z,3.70
2023-03-13T13:26:39.508Z,5.70
2023-03-13T13:29:42.851Z,4.33
2023-03-13T13:32:16.570Z,1.97
2023-03-13T13:35:02.732Z,3.13
2023-03-13T13:37:30.522Z,5.30
2023-03-13T13:40:19.208Z,2.07
2023-03-13T13:42:52.611Z,2.77
2023-03-13T13:45:58.394Z,2.60
2023-03-13T13:48:32.894Z,1.50
2023-03-13T13:51:26.702Z,2.33
2023-03-13T13:53:59.848Z,3.87
2023-03-13T13:56:36.611Z,3.57
2023-03-13T13:59:17.793Z,3.63
2023-03-13T14:01:46.450Z,3.53
2023-03-13T14:04:18.215Z,3.60
2023-03-13T14:06:51.881Z,3.90
2023-03-13T14:09:32.565Z,5.63
2023-03-13T14:12:00.565Z,7.93
2023-03-13T14:14:28.468Z,2.33
2023-03-13T14:16:57.868Z,4.00
2023-03-13T14:19:30.102Z,2.70
2023-03-13T14:22:05.086Z,3.07
2023-03-13T14:24:33.333Z,3.17
2023-03-13T14:27:01.999Z,2.17
2023-03-13T14:29:30.009Z,1.50
2023-03-13T14:31:59.693Z,2.63
2023-03-13T14:34:31.547Z,2.53
2023-03-13T14:37:17.693Z,2.10
2023-03-13T14:39:48.644Z,3.90
2023-03-13T14:42:18.776Z,1.67
2023-03-13T14:44:50.234Z,1.50
2023-03-13T14:47:24.091Z,1.73
2023-03-13T14:49:59.191Z,2.53
2023-03-13T14:52:29.677Z,2.63
2023-03-13T14:55:02.244Z,2.83
2023-03-13T14:57:30.230Z,1.87
2023-03-13T15:00:31.103Z,4.93
2023-03-13T15:03:31.714Z,3.57
2023-03-13T15:06:17.352Z,2.70
2023-03-13T15:08:49.064Z,2.63
2023-03-13T15:11:30.273Z,4.43
2023-03-13T15:13:59.255Z,6.57
2023-03-13T15:16:28.981Z,6.17
2023-03-13T15:18:58.081Z,5.43
2023-03-13T15:21:31.855Z,6.77
2023-03-13T15:24:04.394Z,4.13
2023-03-13T15:26:32.420Z,4.13
2023-03-13T15:29:00.702Z,6.13
2023-03-13T15:31:30.392Z,6.80
2023-03-13T15:34:00.606Z,4.00
2023-03-13T15:36:29.941Z,3.33
2023-03-13T15:38:57.720Z,2.63
2023-03-13T15:41:27.023Z,3.03
2023-03-13T15:43:56.889Z,3.80
2023-03-13T15:46:26.434Z,6.73
2023-03-13T15:48:54.611Z,7.00
2023-03-13T15:51:22.444Z,4.97
2023-03-13T15:53:53.995Z,3.63
2023-03-13T15:56:23.712Z,3.90
2023-03-13T15:58:54.959Z,3.70
2023-03-13T16:01:23.203Z,3.60
2023-03-13T16:03:51.120Z,3.53
2023-03-13T16:06:20.615Z,4.20
2023-03-13T16:08:48.926Z,5.80
2023-03-13T16:11:18.305Z,5.90
2023-03-13T16:13:46.186Z,5.93
2023-03-13T16:16:21.754Z,3.87
2023-03-13T16:18:49.944Z,5.97
2023-03-13T16:21:21.315Z,6.00
2023-03-13T16:23:49.369Z,6.43
2023-03-13T16:26:19.855Z,6.57
2023-03-13T16:28:48.375Z,6.93
2023-03-13T16:31:22.442Z,5.07
2023-03-13T16:33:54.103Z,6.53
2023-03-13T16:36:23.905Z,5.53
2023-03-13T16:38:53.061Z,7.70
2023-03-13T16:41:22.999Z,3.43
2023-03-13T16:43:51.884Z,4.77
2023-03-13T16:46:22.858Z,3.90
2023-03-13T16:48:52.414Z,6.30
2023-03-13T16:51:22.306Z,7.57
2023-03-13T16:53:51.836Z,7.57
2023-03-13T16:56:24.250Z,7.80
2023-03-13T16:58:52.408Z,9.73
2023-03-13T17:01:21.704Z,6.00
2023-03-13T17:03:49.455Z,8.10
2023-03-13T17:06:19.915Z,8.23
2023-03-13T17:08:48.368Z,5.90
2023-03-13T17:11:19.209Z,8.20
2023-03-13T17:13:48.574Z,9.33
2023-03-13T17:16:19.101Z,5.53
2023-03-13T17:18:49.998Z,6.13
2023-03-13T17:21:22.599Z,7.27
2023-03-13T17:23:51.367Z,5.80
2023-03-13T17:26:23.221Z,5.73
2023-03-13T17:28:53.605Z,9.27
2023-03-13T17:31:24.041Z,8.23
2023-03-13T17:33:53.641Z,10.53
2023-03-13T17:36:24.140Z,10.53
2023-03-13T17:38:54.590Z,8.57
2023-03-13T17:41:25.701Z,10.27
2023-03-13T17:43:57.768Z,8.60
2023-03-13T17:46:32.390Z,7.53
2023-03-13T17:49:03.000Z,6.07
2023-03-13T17:51:33.626Z,5.23
2023-03-13T17:54:04.356Z,8.60
2023-03-13T17:56:38.961Z,4.37
2023-03-13T17:59:12.176Z,3.97
2023-03-13T18:01:40.642Z,5.00
2023-03-13T18:04:11.831Z,6.07
2023-03-13T18:06:42.619Z,5.50
2023-03-13T18:09:16.749Z,10.43
2023-03-13T18:11:45.411Z,7.50
2023-03-13T18:14:14.724Z,5.47
2023-03-13T18:16:48.074Z,4.97
2023-03-13T18:19:22.050Z,3.83
2023-03-13T18:21:53.704Z,4.50
2023-03-13T18:24:22.472Z,4.43
2023-03-13T18:26:51.295Z,2.83
2023-03-13T18:29:26.909Z,6.90
2023-03-13T18:31:56.258Z,5.30
2023-03-13T18:34:26.176Z,5.13
2023-03-13T18:36:55.550Z,5.27
2023-03-13T18:39:24.097Z,3.87
2023-03-13T18:41:53.324Z,2.17
2023-03-13T18:44:21.859Z,7.83
2023-03-13T18:46:52.066Z,6.00
2023-03-13T18:49:25.068Z,4.37
2023-03-13T18:51:55.188Z,6.03
2023-03-13T18:54:24.192Z,7.33
2023-03-13T18:56:55.257Z,3.17
2023-03-13T18:59:23.978Z,4.67
2023-03-13T19:01:52.883Z,4.70
2023-03-13T19:04:21.640Z,6.17
2023-03-13T19:06:50.309Z,6.37
2023-03-13T19:09:42.170Z,6.63
2023-03-13T19:12:12.841Z,6.63
2023-03-13T19:14:40.760Z,5.93
2023-03-13T19:17:19.682Z,6.03
2023-03-13T19:19:47.421Z,6.97
2023-03-13T19:22:15.476Z,8.40
2023-03-13T19:24:45.123Z,8.57
2023-03-13T19:27:17.067Z,5.57
2023-03-13T19:29:46.468Z,6.13
2023-03-13T19:32:15.819Z,9.53
2023-03-13T19:34:43.890Z,7.80
2023-03-13T19:37:14.176Z,3.33
2023-03-13T19:39:42.644Z,5.00
2023-03-13T19:42:11.930Z,8.07
2023-03-13T19:44:40.414Z,7.20
2023-03-13T19:47:08.320Z,9.03
2023-03-13T19:49:36.039Z,6.90
2023-03-13T19:52:04.038Z,3.77
2023-03-13T19:54:31.836Z,6.90
2023-03-13T19:56:59.575Z,3.80
2023-03-13T19:59:28.841Z,5.87
2023-03-13T20:01:57.188Z,5.83
2023-03-13T20:04:25.145Z,7.10
2023-03-13T20:06:53.047Z,5.57
2023-03-13T20:09:21.441Z,9.87
2023-03-13T20:11:49.501Z,7.67
2023-03-13T20:14:17.320Z,8.43
2023-03-13T20:16:48.923Z,4.87
2023-03-13T20:19:17.259Z,6.50
2023-03-13T20:21:46.653Z,6.80
2023-03-13T20:24:14.937Z,7.83
2023-03-13T20:26:42.914Z,5.30
2023-03-13T20:29:10.686Z,7.70
2023-03-13T20:31:43.066Z,9.37
2023-03-13T20:34:12.208Z,9.10
2023-03-13T20:36:40.028Z,6.87
2023-03-13T20:39:08.118Z,6.03
2023-03-13T20:41:35.936Z,8.13
2023-03-13T20:44:03.706Z,5.50
2023-03-13T20:46:31.552Z,6.40
2023-03-13T20:48:59.356Z,5.90
2023-03-13T20:51:28.890Z,7.70
2023-03-13T20:53:56.728Z,5.63
2023-03-13T20:56:24.471Z,7.07
2023-03-13T20:58:52.224Z,7.10
2023-03-13T21:01:20.875Z,6.43
2023-03-13T21:03:49.583Z,3.57
2023-03-13T21:06:19.665Z,6.53
2023-03-13T21:08:49.492Z,6.60
2023-03-13T21:11:18.930Z,6.43
2023-03-13T21:13:47.031Z,7.60
2023-03-13T21:16:16.321Z,5.83
2023-03-13T21:18:44.588Z,5.60
2023-03-13T21:21:14.957Z,5.17
2023-03-13T21:23:42.860Z,7.40
2023-03-13T21:26:12.842Z,6.60
2023-03-13T21:28:41.486Z,6.57
2023-03-13T21:31:11.188Z,10.07
2023-03-13T21:33:39.582Z,4.77
2023-03-13T21:36:08.429Z,5.67
2023-03-13T21:38:36.474Z,10.77
2023-03-13T21:41:09.360Z,5.47
2023-03-13T21:43:41.347Z,6.07
2023-03-13T21:46:09.459Z,9.27
2023-03-13T21:48:38.617Z,5.70
2023-03-13T21:51:07.639Z,4.80
2023-03-13T21:53:35.705Z,5.43
2023-03-13T21:56:04.271Z,7.60
2023-03-13T21:58:32.133Z,7.43
2023-03-13T22:01:01.367Z,6.40
2023-03-13T22:03:29.243Z,4.77
2023-03-13T22:05:57.054Z,6.27
2023-03-13T22:08:24.830Z,5.73
2023-03-13T22:10:54.811Z,6.07
2023-03-13T22:13:22.943Z,7.30
2023-03-13T22:15:52.644Z,7.37
2023-03-13T22:18:22.022Z,8.27
2023-03-13T22:20:49.823Z,4.90
2023-03-13T22:23:17.685Z,5.37
2023-03-13T22:25:48.159Z,5.57
2023-03-13T22:28:16.402Z,7.27
2023-03-13T22:30:45.654Z,5.37
2023-03-13T22:33:13.745Z,6.73
2023-03-13T22:35:45.108Z,4.83
2023-03-13T22:38:12.894Z,6.60
2023-03-13T22:40:40.736Z,7.40
2023-03-13T22:43:08.519Z,4.67
2023-03-13T22:45:36.345Z,6.20
2023-03-13T22:48:06.450Z,7.50
2023-03-13T22:50:34.495Z,8.83
2023-03-13T22:53:03.806Z,6.03
2023-03-13T22:55:33.188Z,5.97
2023-03-13T22:58:01.319Z,5.17
2023-03-13T23:00:29.424Z,6.23
2023-03-13T23:02:57.193Z,6.27
2023-03-13T23:05:25.056Z,4.93
2023-03-13T23:07:52.962Z,6.93
2023-03-13T23:10:22.409Z,8.30
2023-03-13T23:12:50.136Z,8.60
2023-03-13T23:15:17.855Z,6.33
2023-03-13T23:17:45.546Z,8.20
2023-03-13T23:20:13.941Z,8.37
2023-03-13T23:22:42.746Z,4.27
2023-03-13T23:25:12.688Z,7.60
2023-03-13T23:27:42.683Z,6.47
2023-03-13T23:30:13.629Z,7.13
2023-03-13T23:32:43.804Z,6.10
2023-03-13T23:35:12.751Z,7.63
2023-03-13T23:37:40.750Z,4.90
2023-03-13T23:40:10.273Z,7.30
2023-03-13T23:42:38.254Z,4.77
2023-03-13T23:45:09.151Z,5.60
2023-03-13T23:47:36.949Z,3.70
2023-03-13T23:50:05.769Z,6.50
2023-03-13T23:52:34.998Z,3.90
2023-03-13T23:55:03.144Z,3.73
2023-03-13T23:57:31.485Z,6.27
